Jessore, Bangladesh

10:43 AM BDT on September 02, 2014 (GMT +0600)
Netaji Subhash Chandra Bose International | Change Station
CLOSE
Current Station
Airport
Location: Kolkata,
Elevation: 20 ft
Nearby Weather Stations

Elev 20 ft 22.65 °N, 88.44 °E | Updated 23 minutes ago

Haze
Haze
82 °F
Feels Like 92 °F
N
10
Wind Variable Wind from ESE

Today
High -- | Low -- °F
--% Chance of Precip.
Yesterday
High -- | Low -- °F
Precip. -- in
5:45 AM 6:20 PM
Waxing Crescent, 47% visible
Pressure 29.68 in
Visibility 2.5 miles
Clouds Scattered Clouds 1800 ft
Mostly Cloudy 9000 ft
Heat Index 92 °F
Dew Point 79 °F
Humidity 89%
Rainfall 0.00 in
Snow Depth Not available.
UV 7 out of 12
Pollen Not available.
Air Quality Not available.
Flu Activity Not available.
METAR VECC 020420Z 11009KT 4000 HZ SCT018 BKN090 28/26 Q1005 NOSIG

More Conditions Fewer Conditions

Pressure 29.68 in
Visibility 2.5 miles
Clouds Scattered Clouds 1800 ft
Mostly Cloudy 9000 ft
Heat Index 92 °F
Dew Point 79 °F
Humidity 89%
Rainfall 0.00 in
Snow Depth Not available.
UV 7 out of 12
Pollen Not available.
Air Quality Not available.
Flu Activity Not available.
METAR VECC 020420Z 11009KT 4000 HZ SCT018 BKN090 28/26 Q1005 NOSIG

More Conditions Fewer Conditions

10-Day Weather Forecast

Almanac

Astronomy

Sep. 02, 2014 Rise Set
Actual Time 5:45 AM BDT 6:20 PM BDT
Civil Twilight 5:22 AM BDT 6:43 PM BDT
Nautical Twilight 4:56 AM BDT 7:09 PM BDT
Astronomical Twilight 4:28 AM BDT 7:36 PM BDT
Moon 12:14 PM BDT 11:34 PM BDT
Length of Visible Light 13h 20m
Length of Day
12h 34m
Tomorrow will be 1m 17s shorter.
Waxing Crescent, 47% of the Moon is Illuminated
Today
Waxing Crescent
Sep 2
First Quarter
Sep 8
Full
Sep 15
Last Quarter
Sep 24
New

Yesterday's Extremes

Country Highs Country Lows

Community

WunderPhotos

Upload Photos

1,749,573 photos uploaded!

WunderBlogs® & News

Nearby

Snow Depth

Not available.

Earthquake Activity

City Distance Mag. Time & Date
No recent earthquake activity has been reported nearby.
Minimum magnitude displayed is 2.5.

Coastal Water Temperatures

Place Temperature
No Stations Reporting

Nearby Weather Stations